sensor_id;sensor_type;location;lat;lon;timestamp;P1;durP1;ratioP1;P2;durP2;ratioP2
63157;SDS011;49381;49.338;8.794;2023-03-01T00:01:07;13.33;;;7.37;;
63157;SDS011;49381;49.338;8.794;2023-03-01T00:03:09;17.17;;;8.52;;
63157;SDS011;49381;49.338;8.794;2023-03-01T00:05:09;15.27;;;8.38;;
63157;SDS011;49381;49.338;8.794;2023-03-01T00:07:09;16.48;;;8.30;;
63157;SDS011;49381;49.338;8.794;2023-03-01T00:09:11;13.93;;;7.18;;
63157;SDS011;49381;49.338;8.794;2023-03-01T00:11:12;15.52;;;7.85;;
63157;SDS011;49381;49.338;8.794;2023-03-01T00:13:14;12.30;;;7.50;;
63157;SDS011;49381;49.338;8.794;2023-03-01T00:15:14;16.95;;;8.50;;
63157;SDS011;49381;49.338;8.794;2023-03-01T00:17:15;16.98;;;8.35;;
63157;SDS011;49381;49.338;8.794;2023-03-01T00:19:16;13.40;;;8.38;;
63157;SDS011;49381;49.338;8.794;2023-03-01T00:21:18;17.70;;;8.68;;
63157;SDS011;49381;49.338;8.794;2023-03-01T00:23:20;13.57;;;8.15;;
63157;SDS011;49381;49.338;8.794;2023-03-01T00:25:22;14.55;;;7.80;;
63157;SDS011;49381;49.338;8.794;2023-03-01T00:27:22;16.63;;;8.88;;
63157;SDS011;49381;49.338;8.794;2023-03-01T00:29:23;15.10;;;8.00;;
63157;SDS011;49381;49.338;8.794;2023-03-01T00:31:24;11.90;;;7.82;;
63157;SDS011;49381;49.338;8.794;2023-03-01T00:33:28;13.82;;;8.63;;
63157;SDS011;49381;49.338;8.794;2023-03-01T00:35:29;15.60;;;8.20;;
63157;SDS011;49381;49.338;8.794;2023-03-01T00:37:29;14.32;;;8.35;;
63157;SDS011;49381;49.338;8.794;2023-03-01T00:39:29;13.23;;;7.72;;
63157;SDS011;49381;49.338;8.794;2023-03-01T00:41:31;16.67;;;8.85;;
63157;SDS011;49381;49.338;8.794;2023-03-01T00:43:31;16.08;;;8.73;;
63157;SDS011;49381;49.338;8.794;2023-03-01T00:45:32;14.20;;;8.43;;
63157;SDS011;49381;49.338;8.794;2023-03-01T00:47:33;14.50;;;7.63;;
63157;SDS011;49381;49.338;8.794;2023-03-01T00:49:33;13.97;;;7.27;;
63157;SDS011;49381;49.338;8.794;2023-03-01T00:51:33;17.65;;;9.23;;
63157;SDS011;49381;49.338;8.794;2023-03-01T00:53:34;14.00;;;8.20;;
63157;SDS011;49381;49.338;8.794;2023-03-01T00:55:35;17.02;;;9.05;;
63157;SDS011;49381;49.338;8.794;2023-03-01T00:57:37;14.63;;;8.52;;
63157;SDS011;49381;49.338;8.794;2023-03-01T00:59:38;19.92;;;8.68;;
63157;SDS011;49381;49.338;8.794;2023-03-01T01:01:38;15.40;;;7.90;;
63157;SDS011;49381;49.338;8.794;2023-03-01T01:03:39;17.92;;;9.80;;
63157;SDS011;49381;49.338;8.794;2023-03-01T01:05:39;15.38;;;8.68;;
63157;SDS011;49381;49.338;8.794;2023-03-01T01:07:39;16.85;;;9.65;;
63157;SDS011;49381;49.338;8.794;2023-03-01T01:09:40;19.38;;;9.13;;
63157;SDS011;49381;49.338;8.794;2023-03-01T01:11:41;15.65;;;8.50;;
63157;SDS011;49381;49.338;8.794;2023-03-01T01:13:45;18.48;;;8.40;;
63157;SDS011;49381;49.338;8.794;2023-03-01T01:15:46;16.63;;;8.73;;
63157;SDS011;49381;49.338;8.794;2023-03-01T01:17:46;18.27;;;8.55;;
63157;SDS011;49381;49.338;8.794;2023-03-01T01:19:47;16.58;;;8.68;;
63157;SDS011;49381;49.338;8.794;2023-03-01T01:21:47;17.52;;;9.57;;
63157;SDS011;49381;49.338;8.794;2023-03-01T01:23:48;17.27;;;8.68;;
63157;SDS011;49381;49.338;8.794;2023-03-01T01:25:48;15.43;;;8.38;;
63157;SDS011;49381;49.338;8.794;2023-03-01T01:27:49;17.00;;;9.23;;
63157;SDS011;49381;49.338;8.794;2023-03-01T01:29:50;20.67;;;9.87;;
63157;SDS011;49381;49.338;8.794;2023-03-01T01:31:52;15.85;;;8.77;;
63157;SDS011;49381;49.338;8.794;2023-03-01T01:33:53;17.48;;;8.75;;
63157;SDS011;49381;49.338;8.794;2023-03-01T01:35:54;18.38;;;9.23;;
63157;SDS011;49381;49.338;8.794;2023-03-01T01:37:54;17.83;;;8.98;;
63157;SDS011;49381;49.338;8.794;2023-03-01T01:39:54;17.63;;;9.70;;
63157;SDS011;49381;49.338;8.794;2023-03-01T01:41:55;18.23;;;9.60;;
63157;SDS011;49381;49.338;8.794;2023-03-01T01:44:15;20.65;;;9.88;;
63157;SDS011;49381;49.338;8.794;2023-03-01T01:46:21;17.63;;;9.27;;
63157;SDS011;49381;49.338;8.794;2023-03-01T01:48:28;16.42;;;9.15;;
63157;SDS011;49381;49.338;8.794;2023-03-01T01:50:34;16.50;;;9.68;;
63157;SDS011;49381;49.338;8.794;2023-03-01T01:52:36;17.20;;;9.38;;
63157;SDS011;49381;49.338;8.794;2023-03-01T01:54:42;20.42;;;10.52;;
63157;SDS011;49381;49.338;8.794;2023-03-01T01:56:46;18.65;;;10.10;;
63157;SDS011;49381;49.338;8.794;2023-03-01T01:58:51;17.15;;;10.23;;
63157;SDS011;49381;49.338;8.794;2023-03-01T02:00:52;20.23;;;9.93;;
63157;SDS011;49381;49.338;8.794;2023-03-01T02:02:55;16.52;;;9.15;;
63157;SDS011;49381;49.338;8.794;2023-03-01T02:05:01;17.27;;;9.18;;
63157;SDS011;49381;49.338;8.794;2023-03-01T02:07:07;21.25;;;9.73;;
63157;SDS011;49381;49.338;8.794;2023-03-01T02:09:14;15.85;;;9.02;;
63157;SDS011;49381;49.338;8.794;2023-03-01T02:11:18;19.65;;;10.35;;
63157;SDS011;49381;49.338;8.794;2023-03-01T02:13:19;23.00;;;10.45;;
63157;SDS011;49381;49.338;8.794;2023-03-01T02:15:19;16.98;;;9.82;;
63157;SDS011;49381;49.338;8.794;2023-03-01T02:17:19;16.40;;;8.82;;
63157;SDS011;49381;49.338;8.794;2023-03-01T02:19:26;16.77;;;9.73;;
63157;SDS011;49381;49.338;8.794;2023-03-01T02:21:37;21.58;;;10.07;;
63157;SDS011;49381;49.338;8.794;2023-03-01T02:23:42;14.63;;;8.50;;
63157;SDS011;49381;49.338;8.794;2023-03-01T02:25:46;20.08;;;10.48;;
63157;SDS011;49381;49.338;8.794;2023-03-01T02:27:52;16.80;;;9.48;;
63157;SDS011;49381;49.338;8.794;2023-03-01T02:30:00;18.88;;;9.48;;
63157;SDS011;49381;49.338;8.794;2023-03-01T02:32:01;18.05;;;8.75;;
63157;SDS011;49381;49.338;8.794;2023-03-01T02:34:03;21.55;;;10.65;;
63157;SDS011;49381;49.338;8.794;2023-03-01T02:36:05;19.10;;;9.77;;
63157;SDS011;49381;49.338;8.794;2023-03-01T02:38:08;19.45;;;9.35;;
63157;SDS011;49381;49.338;8.794;2023-03-01T02:40:09;18.73;;;10.23;;
63157;SDS011;49381;49.338;8.794;2023-03-01T02:42:14;21.05;;;10.38;;
63157;SDS011;49381;49.338;8.794;2023-03-01T02:44:18;21.08;;;10.38;;
63157;SDS011;49381;49.338;8.794;2023-03-01T02:46:21;16.15;;;10.10;;
63157;SDS011;49381;49.338;8.794;2023-03-01T02:48:23;15.55;;;9.00;;
63157;SDS011;49381;49.338;8.794;2023-03-01T02:50:29;18.17;;;9.82;;
63157;SDS011;49381;49.338;8.794;2023-03-01T02:52:46;18.90;;;9.20;;
63157;SDS011;49381;49.338;8.794;2023-03-01T02:54:57;18.50;;;9.32;;
63157;SDS011;49381;49.338;8.794;2023-03-01T02:57:00;20.15;;;10.10;;
63157;SDS011;49381;49.338;8.794;2023-03-01T02:59:01;17.10;;;9.82;;
63157;SDS011;49381;49.338;8.794;2023-03-01T03:01:02;17.80;;;10.52;;
63157;SDS011;49381;49.338;8.794;2023-03-01T03:03:03;19.50;;;10.57;;
63157;SDS011;49381;49.338;8.794;2023-03-01T03:05:05;19.15;;;9.85;;
63157;SDS011;49381;49.338;8.794;2023-03-01T03:07:08;19.27;;;10.27;;
63157;SDS011;49381;49.338;8.794;2023-03-01T03:09:08;23.35;;;8.88;;
63157;SDS011;49381;49.338;8.794;2023-03-01T03:11:08;16.55;;;9.50;;
63157;SDS011;49381;49.338;8.794;2023-03-01T03:13:10;19.65;;;10.43;;
63157;SDS011;49381;49.338;8.794;2023-03-01T03:15:11;21.13;;;10.88;;
63157;SDS011;49381;49.338;8.794;2023-03-01T03:17:11;21.73;;;10.60;;
63157;SDS011;49381;49.338;8.794;2023-03-01T03:19:13;21.83;;;10.13;;
63157;SDS011;49381;49.338;8.794;2023-03-01T03:21:14;22.15;;;11.15;;
63157;SDS011;49381;49.338;8.794;2023-03-01T03:23:15;20.45;;;10.43;;
63157;SDS011;49381;49.338;8.794;2023-03-01T03:25:15;18.52;;;10.15;;
63157;SDS011;49381;49.338;8.794;2023-03-01T03:27:16;19.42;;;10.02;;
63157;SDS011;49381;49.338;8.794;2023-03-01T03:29:16;16.85;;;9.68;;
63157;SDS011;49381;49.338;8.794;2023-03-01T03:31:17;19.58;;;10.55;;
63157;SDS011;49381;49.338;8.794;2023-03-01T03:33:17;17.85;;;9.55;;
63157;SDS011;49381;49.338;8.794;2023-03-01T03:35:19;19.27;;;10.82;;
63157;SDS011;49381;49.338;8.794;2023-03-01T03:37:20;18.02;;;10.15;;
63157;SDS011;49381;49.338;8.794;2023-03-01T03:39:21;18.08;;;10.20;;
63157;SDS011;49381;49.338;8.794;2023-03-01T03:41:21;19.10;;;9.93;;
63157;SDS011;49381;49.338;8.794;2023-03-01T03:43:22;21.67;;;10.38;;
63157;SDS011;49381;49.338;8.794;2023-03-01T03:45:23;18.92;;;10.32;;
63157;SDS011;49381;49.338;8.794;2023-03-01T03:47:23;23.55;;;11.13;;
63157;SDS011;49381;49.338;8.794;2023-03-01T03:49:23;22.92;;;11.18;;
63157;SDS011;49381;49.338;8.794;2023-03-01T03:51:25;18.00;;;10.45;;
63157;SDS011;49381;49.338;8.794;2023-03-01T03:53:26;19.98;;;9.95;;
63157;SDS011;49381;49.338;8.794;2023-03-01T03:55:28;22.48;;;11.68;;
63157;SDS011;49381;49.338;8.794;2023-03-01T03:57:28;19.85;;;11.40;;
63157;SDS011;49381;49.338;8.794;2023-03-01T03:59:29;26.30;;;10.90;;
63157;SDS011;49381;49.338;8.794;2023-03-01T04:01:29;24.63;;;12.23;;
63157;SDS011;49381;49.338;8.794;2023-03-01T04:03:30;21.60;;;11.15;;
63157;SDS011;49381;49.338;8.794;2023-03-01T04:05:31;22.90;;;11.23;;
63157;SDS011;49381;49.338;8.794;2023-03-01T04:07:33;18.52;;;9.93;;
63157;SDS011;49381;49.338;8.794;2023-03-01T04:09:34;21.45;;;11.00;;
63157;SDS011;49381;49.338;8.794;2023-03-01T04:11:34;21.25;;;10.85;;
63157;SDS011;49381;49.338;8.794;2023-03-01T04:13:34;22.08;;;10.68;;
63157;SDS011;49381;49.338;8.794;2023-03-01T04:15:35;24.45;;;11.18;;
63157;SDS011;49381;49.338;8.794;2023-03-01T04:17:35;23.85;;;11.77;;
63157;SDS011;49381;49.338;8.794;2023-03-01T04:19:36;22.67;;;11.00;;
63157;SDS011;49381;49.338;8.794;2023-03-01T04:21:36;21.40;;;10.90;;
63157;SDS011;49381;49.338;8.794;2023-03-01T04:23:38;23.45;;;11.45;;
63157;SDS011;49381;49.338;8.794;2023-03-01T04:25:38;22.42;;;11.55;;
63157;SDS011;49381;49.338;8.794;2023-03-01T04:27:40;22.25;;;12.35;;
63157;SDS011;49381;49.338;8.794;2023-03-01T04:29:40;20.08;;;10.45;;
63157;SDS011;49381;49.338;8.794;2023-03-01T04:31:41;22.00;;;11.40;;
63157;SDS011;49381;49.338;8.794;2023-03-01T04:33:41;20.57;;;10.33;;
63157;SDS011;49381;49.338;8.794;2023-03-01T04:35:42;24.73;;;11.23;;
63157;SDS011;49381;49.338;8.794;2023-03-01T04:37:43;24.30;;;11.95;;
63157;SDS011;49381;49.338;8.794;2023-03-01T04:39:44;23.45;;;11.15;;
63157;SDS011;49381;49.338;8.794;2023-03-01T04:41:45;19.45;;;11.00;;
63157;SDS011;49381;49.338;8.794;2023-03-01T04:43:45;21.38;;;11.07;;
63157;SDS011;49381;49.338;8.794;2023-03-01T04:45:48;21.27;;;11.13;;
63157;SDS011;49381;49.338;8.794;2023-03-01T04:47:57;25.85;;;12.60;;
63157;SDS011;49381;49.338;8.794;2023-03-01T04:49:59;19.58;;;11.23;;
63157;SDS011;49381;49.338;8.794;2023-03-01T04:51:59;21.98;;;11.05;;
63157;SDS011;49381;49.338;8.794;2023-03-01T04:54:00;19.65;;;10.57;;
63157;SDS011;49381;49.338;8.794;2023-03-01T04:56:12;23.90;;;11.40;;
63157;SDS011;49381;49.338;8.794;2023-03-01T04:58:25;24.70;;;11.48;;
63157;SDS011;49381;49.338;8.794;2023-03-01T05:02:33;23.45;;;11.10;;
63157;SDS011;49381;49.338;8.794;2023-03-01T05:04:41;22.80;;;11.40;;
63157;SDS011;49381;49.338;8.794;2023-03-01T05:06:52;22.80;;;11.73;;
63157;SDS011;49381;49.338;8.794;2023-03-01T05:08:58;21.77;;;11.65;;
63157;SDS011;49381;49.338;8.794;2023-03-01T05:11:11;27.30;;;13.13;;
63157;SDS011;49381;49.338;8.794;2023-03-01T05:13:14;22.55;;;11.95;;
63157;SDS011;49381;49.338;8.794;2023-03-01T05:15:15;27.15;;;12.35;;
63157;SDS011;49381;49.338;8.794;2023-03-01T05:17:15;24.10;;;12.18;;
63157;SDS011;49381;49.338;8.794;2023-03-01T05:19:15;20.98;;;11.88;;
63157;SDS011;49381;49.338;8.794;2023-03-01T05:21:18;26.85;;;12.50;;
63157;SDS011;49381;49.338;8.794;2023-03-01T05:23:21;22.77;;;12.73;;
63157;SDS011;49381;49.338;8.794;2023-03-01T05:25:22;23.88;;;11.88;;
63157;SDS011;49381;49.338;8.794;2023-03-01T05:27:23;21.40;;;10.20;;
63157;SDS011;49381;49.338;8.794;2023-03-01T05:29:27;24.08;;;11.18;;
63157;SDS011;49381;49.338;8.794;2023-03-01T05:31:38;23.92;;;12.32;;
63157;SDS011;49381;49.338;8.794;2023-03-01T05:33:51;25.38;;;12.55;;
63157;SDS011;49381;49.338;8.794;2023-03-01T05:35:54;22.80;;;11.77;;
63157;SDS011;49381;49.338;8.794;2023-03-01T05:37:57;24.20;;;12.70;;
63157;SDS011;49381;49.338;8.794;2023-03-01T05:39:59;21.45;;;11.00;;
63157;SDS011;49381;49.338;8.794;2023-03-01T05:42:02;22.65;;;11.63;;
63157;SDS011;49381;49.338;8.794;2023-03-01T05:44:11;21.20;;;11.27;;
63157;SDS011;49381;49.338;8.794;2023-03-01T05:46:11;23.25;;;13.10;;
63157;SDS011;49381;49.338;8.794;2023-03-01T05:48:14;24.13;;;12.30;;
63157;SDS011;49381;49.338;8.794;2023-03-01T05:50:17;25.88;;;13.10;;
63157;SDS011;49381;49.338;8.794;2023-03-01T05:52:19;24.63;;;12.55;;
63157;SDS011;49381;49.338;8.794;2023-03-01T05:54:28;27.23;;;14.10;;
63157;SDS011;49381;49.338;8.794;2023-03-01T05:56:28;30.70;;;14.60;;
63157;SDS011;49381;49.338;8.794;2023-03-01T05:58:29;28.88;;;14.80;;
63157;SDS011;49381;49.338;8.794;2023-03-01T06:00:34;32.45;;;16.30;;
63157;SDS011;49381;49.338;8.794;2023-03-01T06:02:48;38.80;;;17.00;;
63157;SDS011;49381;49.338;8.794;2023-03-01T06:05:06;33.72;;;15.35;;
63157;SDS011;49381;49.338;8.794;2023-03-01T06:07:32;28.30;;;13.57;;
63157;SDS011;49381;49.338;8.794;2023-03-01T06:09:44;25.25;;;13.15;;
63157;SDS011;49381;49.338;8.794;2023-03-01T06:11:48;27.10;;;13.52;;
63157;SDS011;49381;49.338;8.794;2023-03-01T06:13:54;26.80;;;13.20;;
63157;SDS011;49381;49.338;8.794;2023-03-01T06:16:03;23.90;;;13.02;;
63157;SDS011;49381;49.338;8.794;2023-03-01T06:18:08;28.85;;;12.50;;
63157;SDS011;49381;49.338;8.794;2023-03-01T06:20:14;25.60;;;13.55;;
63157;SDS011;49381;49.338;8.794;2023-03-01T06:22:36;26.20;;;12.65;;
63157;SDS011;49381;49.338;8.794;2023-03-01T06:24:51;32.85;;;13.13;;
63157;SDS011;49381;49.338;8.794;2023-03-01T06:26:59;24.00;;;12.20;;
63157;SDS011;49381;49.338;8.794;2023-03-01T06:29:14;25.15;;;12.52;;
63157;SDS011;49381;49.338;8.794;2023-03-01T06:31:20;23.23;;;12.02;;
63157;SDS011;49381;49.338;8.794;2023-03-01T06:33:24;28.42;;;12.77;;
63157;SDS011;49381;49.338;8.794;2023-03-01T06:35:45;25.08;;;12.32;;
63157;SDS011;49381;49.338;8.794;2023-03-01T06:38:01;27.20;;;13.43;;
63157;SDS011;49381;49.338;8.794;2023-03-01T06:40:03;29.15;;;12.63;;
63157;SDS011;49381;49.338;8.794;2023-03-01T06:42:15;27.02;;;12.20;;
63157;SDS011;49381;49.338;8.794;2023-03-01T06:44:19;26.50;;;12.57;;
63157;SDS011;49381;49.338;8.794;2023-03-01T06:46:30;28.88;;;12.63;;
63157;SDS011;49381;49.338;8.794;2023-03-01T06:48:51;27.88;;;12.35;;
63157;SDS011;49381;49.338;8.794;2023-03-01T06:51:02;32.00;;;13.75;;
63157;SDS011;49381;49.338;8.794;2023-03-01T06:53:04;25.55;;;11.43;;
63157;SDS011;49381;49.338;8.794;2023-03-01T06:55:19;27.30;;;14.25;;
63157;SDS011;49381;49.338;8.794;2023-03-01T06:57:45;25.33;;;12.15;;
63157;SDS011;49381;49.338;8.794;2023-03-01T07:00:05;26.55;;;13.23;;
63157;SDS011;49381;49.338;8.794;2023-03-01T07:05:01;30.30;;;12.95;;
63157;SDS011;49381;49.338;8.794;2023-03-01T07:07:07;26.25;;;13.40;;
63157;SDS011;49381;49.338;8.794;2023-03-01T07:09:10;24.58;;;13.23;;
63157;SDS011;49381;49.338;8.794;2023-03-01T07:11:16;25.63;;;13.35;;
63157;SDS011;49381;49.338;8.794;2023-03-01T07:13:30;29.02;;;13.57;;
63157;SDS011;49381;49.338;8.794;2023-03-01T07:15:40;28.00;;;13.90;;
63157;SDS011;49381;49.338;8.794;2023-03-01T07:18:01;26.95;;;13.13;;
63157;SDS011;49381;49.338;8.794;2023-03-01T07:20:03;26.08;;;12.52;;
63157;SDS011;49381;49.338;8.794;2023-03-01T07:22:12;28.42;;;14.43;;
63157;SDS011;49381;49.338;8.794;2023-03-01T07:24:22;29.00;;;15.02;;
63157;SDS011;49381;49.338;8.794;2023-03-01T07:26:28;25.75;;;13.15;;
63157;SDS011;49381;49.338;8.794;2023-03-01T07:28:41;27.00;;;14.15;;
63157;SDS011;49381;49.338;8.794;2023-03-01T07:30:45;26.05;;;13.70;;
63157;SDS011;49381;49.338;8.794;2023-03-01T07:32:50;25.60;;;12.90;;
63157;SDS011;49381;49.338;8.794;2023-03-01T07:34:53;26.25;;;13.35;;
63157;SDS011;49381;49.338;8.794;2023-03-01T07:36:58;26.45;;;13.00;;
63157;SDS011;49381;49.338;8.794;2023-03-01T07:38:59;27.00;;;13.63;;
63157;SDS011;49381;49.338;8.794;2023-03-01T07:40:59;26.30;;;12.68;;
63157;SDS011;49381;49.338;8.794;2023-03-01T07:43:09;24.70;;;11.93;;
63157;SDS011;49381;49.338;8.794;2023-03-01T07:45:10;24.80;;;12.45;;
63157;SDS011;49381;49.338;8.794;2023-03-01T07:47:11;23.23;;;11.75;;
63157;SDS011;49381;49.338;8.794;2023-03-01T07:49:13;27.38;;;14.48;;
63157;SDS011;49381;49.338;8.794;2023-03-01T07:51:14;37.22;;;17.40;;
63157;SDS011;49381;49.338;8.794;2023-03-01T07:53:30;30.33;;;15.15;;
63157;SDS011;49381;49.338;8.794;2023-03-01T07:57:48;27.67;;;13.45;;
63157;SDS011;49381;49.338;8.794;2023-03-01T07:59:48;25.10;;;12.13;;
63157;SDS011;49381;49.338;8.794;2023-03-01T08:01:49;26.48;;;12.38;;
63157;SDS011;49381;49.338;8.794;2023-03-01T08:03:52;25.77;;;12.70;;
63157;SDS011;49381;49.338;8.794;2023-03-01T08:05:58;25.85;;;13.65;;
63157;SDS011;49381;49.338;8.794;2023-03-01T08:07:59;25.88;;;12.23;;
63157;SDS011;49381;49.338;8.794;2023-03-01T08:10:01;23.58;;;12.50;;
63157;SDS011;49381;49.338;8.794;2023-03-01T08:12:07;24.27;;;12.63;;
63157;SDS011;49381;49.338;8.794;2023-03-01T08:14:15;26.23;;;12.98;;
63157;SDS011;49381;49.338;8.794;2023-03-01T08:16:23;21.15;;;10.25;;
63157;SDS011;49381;49.338;8.794;2023-03-01T08:18:30;31.80;;;12.98;;
63157;SDS011;49381;49.338;8.794;2023-03-01T08:20:35;27.80;;;13.13;;
63157;SDS011;49381;49.338;8.794;2023-03-01T08:22:49;25.35;;;13.40;;
63157;SDS011;49381;49.338;8.794;2023-03-01T08:25:19;26.38;;;12.63;;
63157;SDS011;49381;49.338;8.794;2023-03-01T08:27:49;24.05;;;13.40;;
63157;SDS011;49381;49.338;8.794;2023-03-01T08:29:58;26.30;;;13.05;;
63157;SDS011;49381;49.338;8.794;2023-03-01T08:32:53;26.05;;;13.80;;
63157;SDS011;49381;49.338;8.794;2023-03-01T08:38:09;25.08;;;12.48;;
63157;SDS011;49381;49.338;8.794;2023-03-01T08:40:25;28.50;;;13.07;;
63157;SDS011;49381;49.338;8.794;2023-03-01T08:42:44;26.73;;;13.45;;
63157;SDS011;49381;49.338;8.794;2023-03-01T08:45:00;26.65;;;14.55;;
63157;SDS011;49381;49.338;8.794;2023-03-01T08:47:17;24.33;;;10.95;;
63157;SDS011;49381;49.338;8.794;2023-03-01T08:49:28;26.02;;;13.00;;
63157;SDS011;49381;49.338;8.794;2023-03-01T08:51:55;26.30;;;13.38;;
63157;SDS011;49381;49.338;8.794;2023-03-01T08:54:04;28.13;;;14.13;;
63157;SDS011;49381;49.338;8.794;2023-03-01T09:01:21;23.88;;;12.70;;
63157;SDS011;49381;49.338;8.794;2023-03-01T09:03:24;26.52;;;14.70;;
63157;SDS011;49381;49.338;8.794;2023-03-01T09:05:45;26.50;;;13.98;;
63157;SDS011;49381;49.338;8.794;2023-03-01T09:07:59;24.00;;;13.60;;
63157;SDS011;49381;49.338;8.794;2023-03-01T09:18:06;25.52;;;13.63;;
63157;SDS011;49381;49.338;8.794;2023-03-01T09:20:21;24.83;;;13.68;;
63157;SDS011;49381;49.338;8.794;2023-03-01T09:22:24;27.55;;;14.25;;
63157;SDS011;49381;49.338;8.794;2023-03-01T09:24:28;28.42;;;14.95;;
63157;SDS011;49381;49.338;8.794;2023-03-01T09:26:36;26.63;;;14.73;;
63157;SDS011;49381;49.338;8.794;2023-03-01T09:28:47;27.52;;;14.18;;
63157;SDS011;49381;49.338;8.794;2023-03-01T09:35:46;24.75;;;14.65;;
63157;SDS011;49381;49.338;8.794;2023-03-01T09:40:55;28.45;;;14.35;;
63157;SDS011;49381;49.338;8.794;2023-03-01T09:43:21;32.33;;;13.68;;
63157;SDS011;49381;49.338;8.794;2023-03-01T09:46:09;26.98;;;14.10;;
63157;SDS011;49381;49.338;8.794;2023-03-01T09:53:55;22.55;;;12.30;;
63157;SDS011;49381;49.338;8.794;2023-03-01T09:56:39;30.30;;;13.90;;
63157;SDS011;49381;49.338;8.794;2023-03-01T09:59:17;25.80;;;12.88;;
63157;SDS011;49381;49.338;8.794;2023-03-01T10:02:05;29.63;;;14.43;;
63157;SDS011;49381;49.338;8.794;2023-03-01T10:04:40;24.38;;;13.00;;
63157;SDS011;49381;49.338;8.794;2023-03-01T10:06:54;25.98;;;13.75;;
63157;SDS011;49381;49.338;8.794;2023-03-01T10:45:44;24.95;;;13.70;;
63157;SDS011;49381;49.338;8.794;2023-03-01T10:47:57;23.85;;;12.52;;
63157;SDS011;49381;49.338;8.794;2023-03-01T10:50:42;24.80;;;12.65;;
63157;SDS011;49381;49.338;8.794;2023-03-01T10:53:19;23.50;;;12.63;;
63157;SDS011;49381;49.338;8.794;2023-03-01T10:57:04;27.00;;;14.05;;
63157;SDS011;49381;49.338;8.794;2023-03-01T11:06:28;24.92;;;13.48;;
63157;SDS011;49381;49.338;8.794;2023-03-01T11:08:43;24.17;;;12.88;;
63157;SDS011;49381;49.338;8.794;2023-03-01T11:16:47;23.70;;;12.85;;
63157;SDS011;49381;49.338;8.794;2023-03-01T11:19:13;22.42;;;13.02;;
63157;SDS011;49381;49.338;8.794;2023-03-01T11:21:41;23.80;;;13.90;;
63157;SDS011;49381;49.338;8.794;2023-03-01T11:24:03;25.80;;;12.80;;
63157;SDS011;49381;49.338;8.794;2023-03-01T11:26:34;24.90;;;13.20;;
63157;SDS011;49381;49.338;8.794;2023-03-01T11:28:45;23.67;;;12.88;;
63157;SDS011;49381;49.338;8.794;2023-03-01T11:32:01;27.42;;;14.68;;
63157;SDS011;49381;49.338;8.794;2023-03-01T11:34:09;21.23;;;12.65;;
63157;SDS011;49381;49.338;8.794;2023-03-01T11:36:54;22.23;;;12.30;;
63157;SDS011;49381;49.338;8.794;2023-03-01T11:39:11;26.10;;;13.73;;
63157;SDS011;49381;49.338;8.794;2023-03-01T11:42:03;23.73;;;13.05;;
63157;SDS011;49381;49.338;8.794;2023-03-01T11:52:18;22.45;;;12.45;;
63157;SDS011;49381;49.338;8.794;2023-03-01T11:54:47;22.88;;;13.27;;
63157;SDS011;49381;49.338;8.794;2023-03-01T11:57:10;21.45;;;12.77;;
63157;SDS011;49381;49.338;8.794;2023-03-01T11:59:55;27.00;;;13.23;;
63157;SDS011;49381;49.338;8.794;2023-03-01T12:07:35;21.38;;;11.88;;
63157;SDS011;49381;49.338;8.794;2023-03-01T12:14:53;32.03;;;17.33;;
63157;SDS011;49381;49.338;8.794;2023-03-01T12:17:24;21.58;;;12.73;;
63157;SDS011;49381;49.338;8.794;2023-03-01T12:19:51;23.17;;;12.57;;
63157;SDS011;49381;49.338;8.794;2023-03-01T12:30:24;26.20;;;12.75;;
63157;SDS011;49381;49.338;8.794;2023-03-01T12:38:30;20.85;;;12.38;;
63157;SDS011;49381;49.338;8.794;2023-03-01T12:46:23;16.90;;;10.20;;
63157;SDS011;49381;49.338;8.794;2023-03-01T12:49:18;24.63;;;11.20;;
63157;SDS011;49381;49.338;8.794;2023-03-01T12:54:01;19.75;;;10.80;;
63157;SDS011;49381;49.338;8.794;2023-03-01T13:16:00;23.73;;;14.05;;
63157;SDS011;49381;49.338;8.794;2023-03-01T13:21:10;29.83;;;18.73;;
63157;SDS011;49381;49.338;8.794;2023-03-01T13:23:35;17.92;;;11.00;;
63157;SDS011;49381;49.338;8.794;2023-03-01T13:26:00;19.92;;;10.70;;
63157;SDS011;49381;49.338;8.794;2023-03-01T13:30:50;19.70;;;11.38;;
63157;SDS011;49381;49.338;8.794;2023-03-01T13:36:09;19.55;;;10.43;;
63157;SDS011;49381;49.338;8.794;2023-03-01T13:41:06;19.73;;;11.30;;
63157;SDS011;49381;49.338;8.794;2023-03-01T13:45:33;21.02;;;12.10;;
63157;SDS011;49381;49.338;8.794;2023-03-01T13:47:41;20.27;;;11.25;;
63157;SDS011;49381;49.338;8.794;2023-03-01T13:49:44;20.95;;;10.27;;
63157;SDS011;49381;49.338;8.794;2023-03-01T13:51:48;19.65;;;10.82;;
63157;SDS011;49381;49.338;8.794;2023-03-01T13:53:50;18.83;;;8.18;;
63157;SDS011;49381;49.338;8.794;2023-03-01T13:56:01;18.02;;;10.00;;
63157;SDS011;49381;49.338;8.794;2023-03-01T13:58:14;19.80;;;11.23;;
63157;SDS011;49381;49.338;8.794;2023-03-01T14:02:42;22.55;;;11.07;;
63157;SDS011;49381;49.338;8.794;2023-03-01T14:04:43;20.80;;;11.48;;
63157;SDS011;49381;49.338;8.794;2023-03-01T14:06:43;21.63;;;11.90;;
63157;SDS011;49381;49.338;8.794;2023-03-01T14:08:45;22.48;;;11.05;;
63157;SDS011;49381;49.338;8.794;2023-03-01T14:10:51;27.10;;;10.90;;
63157;SDS011;49381;49.338;8.794;2023-03-01T14:13:00;15.95;;;8.77;;
63157;SDS011;49381;49.338;8.794;2023-03-01T14:17:29;18.83;;;9.80;;
63157;SDS011;49381;49.338;8.794;2023-03-01T14:19:45;19.10;;;10.00;;
63157;SDS011;49381;49.338;8.794;2023-03-01T14:21:47;17.73;;;10.88;;
63157;SDS011;49381;49.338;8.794;2023-03-01T14:23:49;21.88;;;10.02;;
63157;SDS011;49381;49.338;8.794;2023-03-01T14:25:50;17.95;;;10.80;;
63157;SDS011;49381;49.338;8.794;2023-03-01T14:27:59;23.20;;;11.38;;
63157;SDS011;49381;49.338;8.794;2023-03-01T14:30:04;19.05;;;11.45;;
63157;SDS011;49381;49.338;8.794;2023-03-01T14:32:17;20.38;;;11.30;;
63157;SDS011;49381;49.338;8.794;2023-03-01T14:34:24;21.63;;;10.43;;
63157;SDS011;49381;49.338;8.794;2023-03-01T14:36:27;21.60;;;10.52;;
63157;SDS011;49381;49.338;8.794;2023-03-01T14:38:43;18.65;;;10.32;;
63157;SDS011;49381;49.338;8.794;2023-03-01T14:40:48;21.63;;;11.48;;
63157;SDS011;49381;49.338;8.794;2023-03-01T14:43:08;20.98;;;11.20;;
63157;SDS011;49381;49.338;8.794;2023-03-01T14:45:11;17.60;;;10.15;;
63157;SDS011;49381;49.338;8.794;2023-03-01T14:47:14;15.77;;;8.82;;
63157;SDS011;49381;49.338;8.794;2023-03-01T14:49:20;19.33;;;10.98;;
63157;SDS011;49381;49.338;8.794;2023-03-01T14:51:29;19.13;;;10.80;;
63157;SDS011;49381;49.338;8.794;2023-03-01T14:53:30;17.98;;;10.32;;
63157;SDS011;49381;49.338;8.794;2023-03-01T14:55:33;16.85;;;10.23;;
63157;SDS011;49381;49.338;8.794;2023-03-01T14:57:38;19.92;;;10.48;;
63157;SDS011;49381;49.338;8.794;2023-03-01T14:59:43;18.27;;;11.30;;
63157;SDS011;49381;49.338;8.794;2023-03-01T15:01:44;17.30;;;8.85;;
63157;SDS011;49381;49.338;8.794;2023-03-01T15:03:46;20.48;;;10.93;;
63157;SDS011;49381;49.338;8.794;2023-03-01T15:05:48;17.77;;;11.18;;
63157;SDS011;49381;49.338;8.794;2023-03-01T15:07:50;18.25;;;10.45;;
63157;SDS011;49381;49.338;8.794;2023-03-01T15:09:51;18.52;;;11.63;;
63157;SDS011;49381;49.338;8.794;2023-03-01T15:11:55;17.63;;;11.27;;
63157;SDS011;49381;49.338;8.794;2023-03-01T15:13:57;18.42;;;10.52;;
63157;SDS011;49381;49.338;8.794;2023-03-01T15:16:02;17.20;;;9.80;;
63157;SDS011;49381;49.338;8.794;2023-03-01T15:18:15;17.98;;;10.40;;